createdAt,value
2018-01-27T00:01:37.832Z,0.40
2018-01-27T00:04:05.473Z,0.39
2018-01-27T00:06:33.052Z,0.40
2018-01-27T00:09:00.689Z,0.44
2018-01-27T00:26:26.084Z,0.33
2018-01-27T00:28:53.727Z,0.31
2018-01-27T00:31:22.761Z,0.33
2018-01-27T00:33:50.334Z,0.43
2018-01-27T00:36:17.917Z,0.46
2018-01-27T00:38:45.477Z,0.40
2018-01-27T00:41:13.863Z,0.31
2018-01-27T00:43:41.528Z,0.28
2018-01-27T00:46:09.302Z,0.20
2018-01-27T00:48:36.913Z,0.37
2018-01-27T00:51:04.822Z,0.46
2018-01-27T00:53:32.470Z,0.50
2018-01-27T00:56:00.050Z,0.47
2018-01-27T00:58:27.702Z,0.43
2018-01-27T01:00:55.290Z,0.32
2018-01-27T01:03:23.157Z,0.26
2018-01-27T01:05:50.740Z,0.29
2018-01-27T01:08:18.297Z,0.22
2018-01-27T01:10:45.843Z,0.21
2018-01-27T01:13:13.431Z,0.22
2018-01-27T01:15:40.985Z,0.20
2018-01-27T01:18:08.606Z,0.17
2018-01-27T01:20:36.340Z,0.12
2018-01-27T01:23:04.169Z,0.06
2018-01-27T01:25:31.956Z,0.09
2018-01-27T01:27:59.626Z,0.14
2018-01-27T01:30:27.210Z,0.11
2018-01-27T01:32:54.789Z,0.13
2018-01-27T01:35:22.376Z,0.13
2018-01-27T01:37:49.939Z,0.18
2018-01-27T01:40:17.523Z,0.23
2018-01-27T01:42:50.796Z,0.34
2018-01-27T01:45:18.340Z,0.26
2018-01-27T01:47:45.926Z,0.28
2018-01-27T01:50:13.659Z,0.20
2018-01-27T01:52:41.215Z,0.20
2018-01-27T01:55:09.233Z,0.28
2018-01-27T01:57:36.925Z,0.38
2018-01-27T02:00:04.979Z,0.51
2018-01-27T02:02:32.858Z,0.61
2018-01-27T02:05:00.395Z,0.65
2018-01-27T02:07:28.004Z,0.81
2018-01-27T02:09:55.620Z,0.77
2018-01-27T02:12:23.212Z,0.59
2018-01-27T02:14:50.798Z,0.36
2018-01-27T02:17:18.398Z,0.30
2018-01-27T02:19:46.008Z,0.39
2018-01-27T02:22:13.778Z,0.54
2018-01-27T02:24:41.499Z,0.73
2018-01-27T02:27:09.784Z,0.80
2018-01-27T02:29:37.545Z,0.80
2018-01-27T02:32:05.136Z,0.66
2018-01-27T02:34:32.791Z,0.66
2018-01-27T02:37:00.356Z,0.70
2018-01-27T02:39:27.933Z,0.78
2018-01-27T02:41:55.495Z,0.81
2018-01-27T02:44:23.158Z,0.78
2018-01-27T02:46:51.114Z,0.80
2018-01-27T02:49:19.390Z,0.82
2018-01-27T02:51:47.372Z,0.92
2018-01-27T02:54:14.948Z,0.83
2018-01-27T02:56:42.520Z,0.88
2018-01-27T02:59:10.109Z,0.88
2018-01-27T03:01:38.810Z,0.81
2018-01-27T03:04:06.391Z,0.85
2018-01-27T03:06:33.959Z,0.84
2018-01-27T03:09:01.541Z,0.83
2018-01-27T03:11:29.247Z,0.88
2018-01-27T03:13:56.918Z,0.83
2018-01-27T03:19:15.364Z,0.64
2018-01-27T03:21:42.933Z,0.61
2018-01-27T03:24:10.557Z,0.55
2018-01-27T03:26:38.103Z,0.56
2018-01-27T03:29:05.749Z,0.53
2018-01-27T03:31:33.325Z,0.58
2018-01-27T03:34:00.919Z,0.61
2018-01-27T03:36:30.772Z,0.73
2018-01-27T03:38:58.554Z,0.77
2018-01-27T03:41:26.552Z,0.86
2018-01-27T03:43:54.124Z,0.80
2018-01-27T03:46:21.741Z,0.81
2018-01-27T03:48:49.419Z,0.69
2018-01-27T03:51:17.125Z,0.69
2018-01-27T03:53:45.170Z,0.72
2018-01-27T03:56:12.761Z,0.79
2018-01-27T03:58:42.877Z,0.89
2018-01-27T04:01:10.590Z,0.96
2018-01-27T04:03:38.162Z,0.94
2018-01-27T04:06:05.746Z,1.03
2018-01-27T04:08:33.337Z,1.00
2018-01-27T04:11:00.907Z,1.00
2018-01-27T04:13:28.477Z,1.00
2018-01-27T04:15:56.010Z,0.97
2018-01-27T04:18:23.590Z,0.94
2018-01-27T04:20:51.214Z,0.94
2018-01-27T04:23:19.199Z,0.91
2018-01-27T04:25:46.785Z,0.94
2018-01-27T04:28:14.386Z,0.81
2018-01-27T04:30:41.933Z,0.73
2018-01-27T04:33:10.697Z,0.50
2018-01-27T04:35:38.319Z,0.41
2018-01-27T04:38:05.876Z,0.57
2018-01-27T04:40:33.424Z,0.72
2018-01-27T04:43:01.000Z,0.77
2018-01-27T04:45:28.572Z,0.77
2018-01-27T04:47:56.142Z,0.78
2018-01-27T04:50:23.803Z,0.74
2018-01-27T04:52:51.379Z,0.75
2018-01-27T04:55:18.936Z,0.91
2018-01-27T04:57:46.525Z,1.10
2018-01-27T05:00:14.117Z,1.02
2018-01-27T05:02:41.675Z,0.87
2018-01-27T05:05:09.590Z,0.74
2018-01-27T05:07:37.174Z,0.57
2018-01-27T05:10:04.771Z,0.48
2018-01-27T05:12:32.328Z,0.66
2018-01-27T05:14:59.925Z,0.77
2018-01-27T05:17:28.164Z,0.72
2018-01-27T05:19:55.728Z,0.72
2018-01-27T05:22:23.882Z,0.71
2018-01-27T05:24:51.461Z,0.75
2018-01-27T05:27:19.015Z,0.72
2018-01-27T05:29:46.579Z,0.66
2018-01-27T05:32:14.112Z,0.68
2018-01-27T05:34:41.708Z,0.62
2018-01-27T05:37:09.838Z,0.63
2018-01-27T05:39:37.380Z,0.59
2018-01-27T05:42:04.978Z,0.54
2018-01-27T05:44:32.524Z,0.49
2018-01-27T05:47:00.079Z,0.61
2018-01-27T05:49:27.673Z,0.62
2018-01-27T05:51:55.258Z,0.65
2018-01-27T05:54:23.504Z,0.71
2018-01-27T05:56:51.072Z,0.71
2018-01-27T05:59:18.681Z,0.69
2018-01-27T06:01:46.320Z,0.58
2018-01-27T06:04:13.904Z,0.54
2018-01-27T06:06:41.481Z,0.54
2018-01-27T06:09:09.789Z,0.55
2018-01-27T06:11:37.400Z,0.59
2018-01-27T06:14:05.012Z,0.61
2018-01-27T06:16:32.558Z,0.56
2018-01-27T06:19:00.119Z,0.54
2018-01-27T06:21:27.716Z,0.58
2018-01-27T06:23:55.338Z,0.65
2018-01-27T06:26:22.958Z,0.68
2018-01-27T06:28:50.537Z,0.64
2018-01-27T06:31:18.119Z,0.68
2018-01-27T06:33:45.683Z,0.66
2018-01-27T06:36:13.293Z,0.62
2018-01-27T06:38:40.859Z,0.65
2018-01-27T06:41:09.201Z,0.67
2018-01-27T06:43:37.047Z,0.68
2018-01-27T06:46:04.621Z,0.73
2018-01-27T06:48:32.219Z,0.75
2018-01-27T06:50:59.835Z,0.78
2018-01-27T06:53:27.380Z,0.74
2018-01-27T06:55:54.932Z,0.71
2018-01-27T06:58:23.692Z,0.75
2018-01-27T07:00:51.240Z,0.65
2018-01-27T07:03:20.069Z,0.64
2018-01-27T07:05:47.723Z,0.66
2018-01-27T07:08:15.283Z,0.65
2018-01-27T07:10:42.825Z,0.60
2018-01-27T07:13:10.541Z,0.64
2018-01-27T07:15:38.106Z,0.66
2018-01-27T07:18:08.106Z,0.63
2018-01-27T07:20:35.861Z,0.77
2018-01-27T07:23:03.478Z,0.82
2018-01-27T07:25:31.116Z,0.81
2018-01-27T07:27:59.088Z,0.85
2018-01-27T07:30:26.954Z,1.03
2018-01-27T07:32:55.530Z,1.18
2018-01-27T07:35:23.318Z,1.39
2018-01-27T07:37:50.966Z,1.30
2018-01-27T07:40:18.582Z,1.23
2018-01-27T07:42:46.152Z,1.11
2018-01-27T07:45:13.702Z,1.20
2018-01-27T07:47:41.277Z,1.24
2018-01-27T07:50:11.169Z,1.32
2018-01-27T07:52:43.936Z,1.32
2018-01-27T07:55:13.007Z,1.31
2018-01-27T07:57:40.643Z,1.30
2018-01-27T08:00:08.208Z,1.27
2018-01-27T08:02:35.765Z,1.26
2018-01-27T08:05:03.318Z,1.35
2018-01-27T08:07:30.909Z,1.58
2018-01-27T08:09:58.468Z,1.87
2018-01-27T08:12:26.937Z,2.08
2018-01-27T08:14:54.543Z,2.00
2018-01-27T08:17:22.418Z,2.00
2018-01-27T08:19:50.015Z,1.79
2018-01-27T08:22:17.593Z,1.83
2018-01-27T08:24:45.162Z,1.98
2018-01-27T08:27:13.211Z,2.18
2018-01-27T08:29:40.783Z,2.11
2018-01-27T08:32:08.376Z,1.92
2018-01-27T08:34:35.935Z,2.07
2018-01-27T08:37:03.519Z,2.34
2018-01-27T08:39:31.112Z,2.52
2018-01-27T08:41:58.674Z,2.62
2018-01-27T08:44:26.271Z,2.70
2018-01-27T08:46:53.823Z,2.80
2018-01-27T08:49:21.434Z,2.87
2018-01-27T08:51:49.066Z,3.04
2018-01-27T08:54:16.833Z,2.57
2018-01-27T08:56:44.396Z,2.73
2018-01-27T08:59:12.107Z,2.90
2018-01-27T09:01:39.701Z,2.95
2018-01-27T09:04:07.325Z,2.99
2018-01-27T09:06:34.906Z,3.06
2018-01-27T09:09:02.564Z,2.94
2018-01-27T09:11:30.149Z,3.01
2018-01-27T09:13:57.827Z,3.07
2018-01-27T09:16:26.952Z,3.21
2018-01-27T09:18:54.493Z,3.09
2018-01-27T09:21:23.015Z,3.26
2018-01-27T09:23:50.688Z,3.34
2018-01-27T09:26:18.246Z,3.52
2018-01-27T09:28:45.812Z,3.64
2018-01-27T09:31:13.581Z,3.83
2018-01-27T09:33:41.174Z,3.49
2018-01-27T09:36:08.741Z,3.23
2018-01-27T09:38:36.368Z,2.89
2018-01-27T09:41:03.924Z,2.98
2018-01-27T09:43:31.793Z,3.30
2018-01-27T09:45:59.350Z,3.37
2018-01-27T09:48:26.885Z,3.43
2018-01-27T09:50:54.489Z,3.42
2018-01-27T09:53:22.068Z,3.34
2018-01-27T09:55:49.639Z,3.17
2018-01-27T09:58:17.243Z,3.20
2018-01-27T10:00:44.808Z,3.43
2018-01-27T10:03:12.994Z,3.58
2018-01-27T10:05:41.847Z,3.83
2018-01-27T10:08:09.441Z,3.77
2018-01-27T10:10:37.004Z,3.71
2018-01-27T10:13:04.691Z,3.57
2018-01-27T10:15:33.115Z,3.78
2018-01-27T10:18:00.681Z,3.85
2018-01-27T10:20:28.350Z,3.91
2018-01-27T10:22:56.164Z,3.50
2018-01-27T10:25:23.845Z,3.45
2018-01-27T10:27:51.398Z,3.22
2018-01-27T10:30:19.148Z,3.04
2018-01-27T10:32:46.717Z,3.07
2018-01-27T10:35:14.399Z,3.17
2018-01-27T10:37:42.017Z,3.18
2018-01-27T10:40:09.569Z,3.20
2018-01-27T10:42:37.112Z,3.25
2018-01-27T10:45:05.122Z,3.13
2018-01-27T10:47:32.714Z,3.14
2018-01-27T10:50:00.263Z,3.11
2018-01-27T10:52:27.872Z,3.09
2018-01-27T10:54:55.465Z,3.14
2018-01-27T10:57:24.231Z,3.09
2018-01-27T10:59:51.830Z,3.03
2018-01-27T11:02:19.418Z,3.04
2018-01-27T11:04:46.977Z,3.16
2018-01-27T11:07:15.711Z,3.27
2018-01-27T11:09:45.051Z,3.34
2018-01-27T11:12:12.836Z,3.25
2018-01-27T11:14:41.687Z,3.27
2018-01-27T11:17:09.307Z,3.33
2018-01-27T11:19:37.608Z,3.30
2018-01-27T11:22:05.267Z,3.04
2018-01-27T11:24:32.841Z,3.18
2018-01-27T11:27:00.397Z,3.18
2018-01-27T11:29:27.995Z,3.41
2018-01-27T11:31:55.601Z,3.62
2018-01-27T11:34:23.185Z,3.57
2018-01-27T11:36:51.323Z,3.24
2018-01-27T11:39:18.891Z,3.23
2018-01-27T11:41:50.672Z,3.43
2018-01-27T11:44:18.490Z,3.64
2018-01-27T11:46:46.128Z,3.42
2018-01-27T11:49:14.037Z,3.43
2018-01-27T11:51:41.598Z,3.45
2018-01-27T11:54:14.398Z,3.41
2018-01-27T11:56:45.035Z,3.63
2018-01-27T11:59:14.771Z,3.94
2018-01-27T12:01:42.514Z,3.96
2018-01-27T12:04:10.189Z,4.09
2018-01-27T12:06:37.810Z,4.66
2018-01-27T12:09:05.931Z,4.71
2018-01-27T12:11:33.535Z,4.89
2018-01-27T12:14:01.544Z,4.87
2018-01-27T12:16:30.982Z,4.65
2018-01-27T12:18:58.592Z,4.68
2018-01-27T12:21:27.996Z,4.93
2018-01-27T12:23:55.825Z,4.91
2018-01-27T12:26:23.921Z,5.47
2018-01-27T12:28:51.564Z,6.44
2018-01-27T12:31:20.300Z,6.67
2018-01-27T12:33:47.918Z,7.63
2018-01-27T12:36:15.708Z,7.40
2018-01-27T12:38:43.431Z,8.33
2018-01-27T12:41:11.507Z,8.77
2018-01-27T12:43:39.209Z,8.81
2018-01-27T12:46:06.848Z,8.64
2018-01-27T12:48:34.473Z,8.47
2018-01-27T12:51:02.041Z,7.52
2018-01-27T12:53:29.634Z,7.06
2018-01-27T12:55:57.296Z,6.92
2018-01-27T12:58:24.863Z,7.40
2018-01-27T13:00:52.456Z,7.07
2018-01-27T13:03:20.963Z,6.54
2018-01-27T13:05:48.593Z,5.83
2018-01-27T13:08:16.220Z,5.38
2018-01-27T13:10:43.808Z,5.20
2018-01-27T13:13:12.181Z,4.93
2018-01-27T13:15:39.793Z,4.96
2018-01-27T13:18:07.437Z,5.04
2018-01-27T13:20:35.015Z,5.06
2018-01-27T13:23:02.566Z,5.11
2018-01-27T13:25:31.554Z,5.16
2018-01-27T13:27:59.161Z,5.44
2018-01-27T13:30:26.852Z,5.73
2018-01-27T13:32:54.704Z,5.52
2018-01-27T13:35:23.438Z,5.27
2018-01-27T13:37:51.509Z,5.02
2018-01-27T13:40:19.164Z,4.87
2018-01-27T13:42:46.734Z,4.79
2018-01-27T13:45:15.364Z,4.84
2018-01-27T13:47:42.944Z,4.92
2018-01-27T13:50:10.591Z,5.14
2018-01-27T13:52:38.362Z,5.33
2018-01-27T13:55:06.817Z,5.76
2018-01-27T13:57:34.564Z,6.02
2018-01-27T14:00:02.466Z,5.85
2018-01-27T14:02:30.184Z,5.91
2018-01-27T14:04:57.944Z,6.23
2018-01-27T14:07:26.437Z,6.74
2018-01-27T14:09:54.081Z,7.02
2018-01-27T14:12:22.559Z,7.09
2018-01-27T14:14:50.121Z,7.14
2018-01-27T14:17:17.819Z,6.98
2018-01-27T14:19:45.367Z,6.60
2018-01-27T14:22:12.929Z,6.32
2018-01-27T14:24:40.779Z,6.11
2018-01-27T14:27:08.649Z,5.82
2018-01-27T14:29:36.610Z,5.60
2018-01-27T14:32:04.611Z,5.50
2018-01-27T14:34:32.501Z,5.31
2018-01-27T14:37:00.155Z,4.97
2018-01-27T14:39:28.893Z,4.48
2018-01-27T14:41:56.456Z,4.11
2018-01-27T14:44:24.885Z,3.89
2018-01-27T14:46:52.465Z,3.80
2018-01-27T14:49:21.663Z,3.71
2018-01-27T14:51:51.613Z,3.57
2018-01-27T14:54:23.433Z,3.50
2018-01-27T14:56:52.440Z,3.38
2018-01-27T14:59:20.761Z,3.31
2018-01-27T15:01:48.933Z,3.34
2018-01-27T15:04:19.233Z,3.28
2018-01-27T15:06:46.840Z,3.27
2018-01-27T15:09:18.748Z,3.27
2018-01-27T15:11:46.368Z,3.24
2018-01-27T15:14:13.967Z,3.19
2018-01-27T15:16:41.691Z,3.08
2018-01-27T15:19:09.860Z,2.97
2018-01-27T15:21:40.293Z,2.79
2018-01-27T15:24:07.881Z,2.70
2018-01-27T15:26:35.473Z,2.64
2018-01-27T15:29:05.343Z,2.60
2018-01-27T15:31:33.312Z,2.49
2018-01-27T15:34:00.924Z,2.44
2018-01-27T15:36:28.606Z,2.35
2018-01-27T15:38:56.932Z,2.27
2018-01-27T15:41:26.141Z,2.09
2018-01-27T15:43:53.939Z,1.85
2018-01-27T15:46:22.500Z,1.72
2018-01-27T15:48:50.188Z,1.63
2018-01-27T15:51:17.769Z,1.56
2018-01-27T15:53:46.579Z,1.53
2018-01-27T15:56:14.633Z,1.48
2018-01-27T15:58:42.283Z,1.47
2018-01-27T16:01:11.310Z,1.45
2018-01-27T16:03:39.036Z,1.43
2018-01-27T16:06:06.693Z,1.34
2018-01-27T16:08:34.247Z,1.24
2018-01-27T16:11:01.917Z,1.13
2018-01-27T16:13:30.006Z,1.04
2018-01-27T16:15:57.661Z,0.90
2018-01-27T16:18:27.271Z,0.82
2018-01-27T16:20:54.879Z,0.76
2018-01-27T16:23:22.529Z,0.68
2018-01-27T16:25:50.080Z,0.62
2018-01-27T16:28:17.687Z,0.61
2018-01-27T16:30:45.250Z,0.62
2018-01-27T16:33:14.057Z,0.60
2018-01-27T16:35:42.631Z,0.58
2018-01-27T16:38:10.265Z,0.59
2018-01-27T16:40:37.893Z,0.59
2018-01-27T16:43:06.041Z,0.62
2018-01-27T16:45:33.636Z,0.72
2018-01-27T16:48:01.272Z,0.78
2018-01-27T16:50:30.233Z,0.81
2018-01-27T16:52:58.077Z,1.01
2018-01-27T16:55:26.081Z,1.20
2018-01-27T16:57:53.749Z,1.18
2018-01-27T17:00:21.651Z,1.14
2018-01-27T17:02:49.300Z,1.17
2018-01-27T17:05:16.927Z,1.30
2018-01-27T17:07:44.770Z,1.49
2018-01-27T17:10:12.453Z,1.60
2018-01-27T17:12:40.056Z,1.57
2018-01-27T17:15:07.855Z,1.57
2018-01-27T17:17:36.137Z,1.54
2018-01-27T17:20:03.733Z,1.53
2018-01-27T17:22:31.288Z,1.51
2018-01-27T17:24:58.871Z,1.46
2018-01-27T17:27:27.670Z,1.42
2018-01-27T17:29:55.328Z,1.37
2018-01-27T17:32:23.276Z,1.29
2018-01-27T17:34:50.889Z,1.34
2018-01-27T17:37:18.616Z,1.51
2018-01-27T17:39:46.251Z,1.68
2018-01-27T17:42:13.931Z,1.82
2018-01-27T17:44:41.490Z,1.79
2018-01-27T17:49:42.928Z,1.86
2018-01-27T17:52:10.517Z,1.92
2018-01-27T17:54:38.123Z,1.95
2018-01-27T17:57:05.999Z,1.82
2018-01-27T17:59:33.596Z,1.73
2018-01-27T18:02:01.182Z,1.78
2018-01-27T18:04:28.796Z,1.80
2018-01-27T18:06:56.441Z,1.84
2018-01-27T18:09:24.788Z,1.85
2018-01-27T18:11:52.495Z,1.95
2018-01-27T18:14:20.501Z,1.98
2018-01-27T18:16:51.469Z,2.03
2018-01-27T18:19:19.592Z,1.99
2018-01-27T18:21:47.325Z,1.95
2018-01-27T18:24:14.947Z,1.97
2018-01-27T18:26:42.515Z,1.97
2018-01-27T18:29:10.661Z,2.02
2018-01-27T18:31:38.477Z,2.09
2018-01-27T18:34:06.032Z,2.04
2018-01-27T18:36:33.605Z,1.97
2018-01-27T18:39:01.181Z,1.92
2018-01-27T18:41:29.320Z,1.86
2018-01-27T18:43:56.874Z,1.82
2018-01-27T18:46:24.442Z,1.76
2018-01-27T18:48:52.008Z,1.72
2018-01-27T18:51:20.743Z,1.84
2018-01-27T18:53:48.543Z,1.99
2018-01-27T18:56:16.097Z,2.13
2018-01-27T18:58:43.667Z,2.24
2018-01-27T19:01:11.242Z,2.16
2018-01-27T19:03:39.037Z,2.22
2018-01-27T19:06:07.108Z,2.22
2018-01-27T19:08:35.217Z,2.21
2018-01-27T19:11:02.832Z,2.14
2018-01-27T19:13:30.452Z,2.15
2018-01-27T19:15:58.001Z,2.22
2018-01-27T19:18:25.617Z,2.12
2018-01-27T19:20:53.993Z,2.21
2018-01-27T19:23:22.988Z,2.19
2018-01-27T19:25:50.612Z,2.10
2018-01-27T19:28:19.535Z,2.07
2018-01-27T19:30:47.088Z,2.14
2018-01-27T19:33:15.106Z,2.13
2018-01-27T19:35:42.708Z,2.20
2018-01-27T19:38:12.380Z,2.23
2018-01-27T19:40:41.521Z,2.31
2018-01-27T19:43:10.528Z,2.40
2018-01-27T19:45:38.233Z,2.46
2018-01-27T19:48:08.303Z,2.69
2018-01-27T19:50:35.973Z,2.73
2018-01-27T19:53:03.616Z,2.65
2018-01-27T19:55:31.206Z,2.62
2018-01-27T19:57:58.781Z,2.54
2018-01-27T20:00:26.344Z,2.60
2018-01-27T20:02:53.886Z,2.53
2018-01-27T20:05:21.569Z,2.46
2018-01-27T20:07:49.185Z,2.39
2018-01-27T20:10:16.751Z,2.32
2018-01-27T20:12:44.567Z,2.29
2018-01-27T20:15:12.529Z,2.24
2018-01-27T20:17:40.093Z,2.26
2018-01-27T20:20:07.686Z,2.22
2018-01-27T20:22:35.284Z,2.23
2018-01-27T20:25:02.879Z,2.37
2018-01-27T20:27:30.450Z,2.43
2018-01-27T20:29:58.263Z,2.42
2018-01-27T20:32:25.841Z,2.43
2018-01-27T20:34:53.414Z,2.49
2018-01-27T20:37:22.361Z,2.63
2018-01-27T20:39:50.048Z,2.61
2018-01-27T20:42:18.098Z,2.58
2018-01-27T20:44:45.769Z,2.65
2018-01-27T20:47:13.319Z,2.54
2018-01-27T20:49:40.943Z,2.33
2018-01-27T20:52:08.537Z,2.21
2018-01-27T20:54:36.192Z,2.25
2018-01-27T20:57:03.751Z,2.30
2018-01-27T20:59:31.402Z,2.33
2018-01-27T21:01:59.316Z,2.47
2018-01-27T21:04:28.463Z,2.55
2018-01-27T21:06:56.129Z,2.59
2018-01-27T21:09:24.095Z,2.49
2018-01-27T21:11:51.850Z,2.56
2018-01-27T21:14:19.436Z,2.65
2018-01-27T21:16:46.996Z,2.66
2018-01-27T21:19:14.609Z,2.60
2018-01-27T21:21:42.202Z,2.61
2018-01-27T21:24:09.921Z,2.51
2018-01-27T21:26:37.493Z,2.46
2018-01-27T21:29:05.849Z,2.38
2018-01-27T21:31:33.412Z,2.32
2018-01-27T21:34:00.959Z,2.40
2018-01-27T21:36:28.533Z,2.37
2018-01-27T21:38:56.135Z,2.40
2018-01-27T21:41:24.081Z,2.52
2018-01-27T21:43:51.662Z,2.59
2018-01-27T21:46:19.305Z,2.69
2018-01-27T21:48:46.909Z,2.68
2018-01-27T21:51:14.548Z,2.61
2018-01-27T21:53:42.131Z,2.60
2018-01-27T21:56:09.891Z,2.56
2018-01-27T21:58:37.463Z,2.49
2018-01-27T22:01:05.051Z,2.36
2018-01-27T22:03:32.475Z,2.06
2018-01-27T22:06:00.073Z,2.24
2018-01-27T22:08:27.686Z,2.29
2018-01-27T22:10:55.264Z,2.30
2018-01-27T22:13:23.411Z,2.30
2018-01-27T22:15:51.064Z,2.28
2018-01-27T22:18:18.636Z,2.23
2018-01-27T22:20:46.236Z,2.25
2018-01-27T22:23:14.240Z,2.24
2018-01-27T22:25:41.799Z,2.27
2018-01-27T22:28:09.552Z,2.20
2018-01-27T22:30:37.125Z,2.10
2018-01-27T22:33:05.355Z,2.03
2018-01-27T22:35:33.017Z,2.02
2018-01-27T22:38:00.638Z,2.04
2018-01-27T22:40:28.253Z,2.10
2018-01-27T22:42:55.935Z,2.08
2018-01-27T22:45:23.580Z,2.11
2018-01-27T22:47:51.269Z,2.16
2018-01-27T22:50:18.844Z,2.20
2018-01-27T22:52:46.425Z,2.23
2018-01-27T22:55:14.004Z,2.15
2018-01-27T22:57:41.563Z,2.17
2018-01-27T23:00:09.129Z,2.24
2018-01-27T23:02:36.727Z,2.15
2018-01-27T23:05:04.352Z,2.16
2018-01-27T23:07:31.925Z,2.08
2018-01-27T23:09:59.550Z,2.09
2018-01-27T23:12:27.124Z,2.13
2018-01-27T23:14:55.631Z,2.33
2018-01-27T23:17:23.278Z,2.56
2018-01-27T23:19:50.840Z,2.74
2018-01-27T23:22:18.410Z,2.80
2018-01-27T23:24:45.997Z,2.94
2018-01-27T23:27:16.002Z,3.04
2018-01-27T23:29:43.613Z,3.01
2018-01-27T23:32:11.276Z,3.00
2018-01-27T23:34:38.919Z,3.06
2018-01-27T23:37:06.541Z,3.10
2018-01-27T23:39:34.115Z,3.18
2018-01-27T23:42:01.665Z,3.21
2018-01-27T23:44:31.096Z,3.22
2018-01-27T23:46:58.689Z,3.20
2018-01-27T23:49:26.248Z,3.22
2018-01-27T23:51:53.850Z,3.25
2018-01-27T23:54:26.479Z,3.27
2018-01-27T23:56:54.074Z,3.28
2018-01-27T23:59:21.677Z,3.35
